createdAt,value
2018-01-22T00:01:01.341Z,25.15
2018-01-22T00:03:36.005Z,27.55
2018-01-22T00:06:10.548Z,27.05
2018-01-22T00:08:44.969Z,30.40
2018-01-22T00:11:19.444Z,35.50
2018-01-22T00:13:53.962Z,25.90
2018-01-22T00:16:28.550Z,24.90
2018-01-22T00:19:03.225Z,28.48
2018-01-22T00:21:37.716Z,29.48
2018-01-22T00:24:12.077Z,29.80
2018-01-22T00:26:47.571Z,29.25
2018-01-22T00:29:21.964Z,34.25
2018-01-22T00:31:56.480Z,28.73
2018-01-22T00:34:31.015Z,29.35
2018-01-22T00:37:05.467Z,31.08
2018-01-22T00:39:39.915Z,24.15
2018-01-22T00:42:14.500Z,31.45
2018-01-22T00:44:49.067Z,22.48
2018-01-22T00:47:24.354Z,22.80
2018-01-22T00:49:59.196Z,27.87
2018-01-22T00:52:33.817Z,28.73
2018-01-22T00:55:08.428Z,29.98
2018-01-22T00:57:42.976Z,25.33
2018-01-22T01:00:18.311Z,26.17
2018-01-22T01:02:52.699Z,29.35
2018-01-22T01:05:27.254Z,20.90
2018-01-22T01:08:01.887Z,15.25
2018-01-22T01:10:36.524Z,31.80
2018-01-22T01:13:11.066Z,23.90
2018-01-22T01:15:45.393Z,27.77
2018-01-22T01:18:19.841Z,26.70
2018-01-22T01:20:55.176Z,28.67
2018-01-22T01:23:29.552Z,27.10
2018-01-22T01:26:04.125Z,19.65
2018-01-22T01:28:38.517Z,36.10
2018-01-22T01:31:13.049Z,24.85
2018-01-22T01:33:47.503Z,27.58
2018-01-22T01:36:21.897Z,23.65
2018-01-22T01:38:56.426Z,27.50
2018-01-22T01:41:30.846Z,28.30
2018-01-22T01:44:05.328Z,31.12
2018-01-22T01:46:39.856Z,24.77
2018-01-22T01:49:14.415Z,29.48
2018-01-22T01:51:48.961Z,25.77
2018-01-22T01:54:24.253Z,30.27
2018-01-22T01:56:58.765Z,25.12
2018-01-22T01:59:33.091Z,31.92
2018-01-22T02:02:07.645Z,22.30
2018-01-22T02:04:42.254Z,22.20
2018-01-22T02:07:17.380Z,26.70
2018-01-22T02:09:51.923Z,22.10
2018-01-22T02:12:26.401Z,25.00
2018-01-22T02:15:00.922Z,26.77
2018-01-22T02:17:35.476Z,22.90
2018-01-22T02:20:09.856Z,26.20
2018-01-22T02:22:44.316Z,29.45
2018-01-22T02:25:18.696Z,26.90
2018-01-22T02:27:53.583Z,23.35
2018-01-22T02:30:28.153Z,24.00
2018-01-22T02:33:03.460Z,27.67
2018-01-22T02:35:38.013Z,27.27
2018-01-22T02:38:12.604Z,29.45
2018-01-22T02:40:46.960Z,24.08
2018-01-22T02:43:21.553Z,27.15
2018-01-22T02:45:56.028Z,25.95
2018-01-22T02:48:30.356Z,25.83
2018-01-22T02:51:04.702Z,32.90
2018-01-22T02:53:40.019Z,25.12
2018-01-22T02:56:14.517Z,34.00
2018-01-22T02:58:49.038Z,35.50
2018-01-22T03:01:23.496Z,41.97
2018-01-22T03:03:58.593Z,36.88
2018-01-22T03:06:32.955Z,34.50
2018-01-22T03:09:07.504Z,28.65
2018-01-22T03:11:42.149Z,35.25
2018-01-22T03:14:17.919Z,32.70
2018-01-22T03:16:52.293Z,32.40
2018-01-22T03:19:26.776Z,25.75
2018-01-22T03:22:01.408Z,30.88
2018-01-22T03:24:36.011Z,34.35
2018-01-22T03:27:10.461Z,25.77
2018-01-22T03:29:45.040Z,42.60
2018-01-22T03:32:19.462Z,29.98
2018-01-22T03:34:53.980Z,28.12
2018-01-22T03:37:28.535Z,30.17
2018-01-22T03:40:02.905Z,32.05
2018-01-22T03:42:37.436Z,29.55
2018-01-22T03:45:12.008Z,28.48
2018-01-22T03:47:46.611Z,25.17
2018-01-22T03:50:21.048Z,19.65
2018-01-22T03:52:55.637Z,27.35
2018-01-22T03:55:31.014Z,23.80
2018-01-22T03:58:12.582Z,27.25
2018-01-22T04:00:46.984Z,24.67
2018-01-22T04:03:21.517Z,30.52
2018-01-22T04:05:56.064Z,32.28
2018-01-22T04:08:30.456Z,30.30
2018-01-22T04:11:04.977Z,33.08
2018-01-22T04:13:39.511Z,34.28
2018-01-22T04:16:14.032Z,25.88
2018-01-22T04:18:48.371Z,39.28
2018-01-22T04:21:22.856Z,20.88
2018-01-22T04:23:57.342Z,25.88
2018-01-22T04:26:31.931Z,26.02
2018-01-22T04:29:06.397Z,30.52
2018-01-22T04:31:40.965Z,37.95
2018-01-22T04:34:15.490Z,26.25
2018-01-22T04:36:50.014Z,26.58
2018-01-22T04:39:24.623Z,32.80
2018-01-22T04:41:59.023Z,33.88
2018-01-22T04:44:33.546Z,29.42
2018-01-22T04:47:08.082Z,23.58
2018-01-22T04:49:42.561Z,29.85
2018-01-22T04:52:17.784Z,26.50
2018-01-22T04:54:52.848Z,25.62
2018-01-22T04:57:27.287Z,29.20
2018-01-22T05:00:01.822Z,30.92
2018-01-22T05:02:36.317Z,27.95
2018-01-22T05:05:10.740Z,25.17
2018-01-22T05:07:45.272Z,29.95
2018-01-22T05:10:19.769Z,11.60
2018-01-22T05:12:55.023Z,30.85
2018-01-22T05:15:29.465Z,25.83
2018-01-22T05:18:04.018Z,29.73
2018-01-22T05:20:38.378Z,15.00
2018-01-22T05:23:13.544Z,29.60
2018-01-22T05:25:48.055Z,26.65
2018-01-22T05:28:22.397Z,29.23
2018-01-22T05:30:56.888Z,26.85
2018-01-22T05:33:31.310Z,24.50
2018-01-22T05:36:05.869Z,32.10
2018-01-22T05:38:40.448Z,27.37
2018-01-22T05:41:15.031Z,27.95
2018-01-22T05:43:49.513Z,28.35
2018-01-22T05:46:23.896Z,26.20
2018-01-22T05:48:59.153Z,31.87
2018-01-22T05:51:33.707Z,22.80
2018-01-22T05:54:08.321Z,37.60
2018-01-22T05:56:42.872Z,31.45
2018-01-22T05:59:18.059Z,32.58
2018-01-22T06:01:52.488Z,26.85
2018-01-22T06:04:27.037Z,31.87
2018-01-22T06:07:01.648Z,33.67
2018-01-22T06:09:36.148Z,31.02
2018-01-22T06:12:10.657Z,30.15
2018-01-22T06:14:45.155Z,29.80
2018-01-22T06:17:19.701Z,32.20
2018-01-22T06:19:54.355Z,28.87
2018-01-22T06:22:28.767Z,27.40
2018-01-22T06:25:03.912Z,28.65
2018-01-22T06:27:38.425Z,31.80
2018-01-22T06:30:12.841Z,30.33
2018-01-22T06:32:48.057Z,31.30
2018-01-22T06:35:23.224Z,24.60
2018-01-22T06:37:57.702Z,26.65
2018-01-22T06:40:32.297Z,28.42
2018-01-22T06:43:06.895Z,27.48
2018-01-22T06:45:41.556Z,32.65
2018-01-22T06:48:15.930Z,37.13
2018-01-22T06:50:50.428Z,31.50
2018-01-22T06:53:24.988Z,34.78
2018-01-22T06:55:59.537Z,29.70
2018-01-22T06:58:34.085Z,33.00
2018-01-22T07:01:08.513Z,35.70
2018-01-22T07:03:43.038Z,32.65
2018-01-22T07:06:18.182Z,35.88
2018-01-22T07:08:52.569Z,31.08
2018-01-22T07:11:27.195Z,28.73
2018-01-22T07:14:01.581Z,29.77
2018-01-22T07:16:36.776Z,32.97
2018-01-22T07:19:11.391Z,29.45
2018-01-22T07:21:45.924Z,26.05
2018-01-22T07:24:20.447Z,29.73
2018-01-22T07:26:54.856Z,37.55
2018-01-22T07:29:29.399Z,36.70
2018-01-22T07:32:03.931Z,18.08
2018-01-22T07:34:38.338Z,32.95
2018-01-22T07:37:12.748Z,31.87
2018-01-22T07:39:47.404Z,31.42
2018-01-22T07:42:21.921Z,30.90
2018-01-22T07:44:56.432Z,32.88
2018-01-22T07:47:30.821Z,35.88
2018-01-22T07:50:05.363Z,26.15
2018-01-22T07:52:39.890Z,33.78
2018-01-22T07:55:14.442Z,39.10
2018-01-22T07:57:48.864Z,36.30
2018-01-22T08:00:23.335Z,30.55
2018-01-22T08:02:57.820Z,33.95
2018-01-22T08:05:32.208Z,36.35
2018-01-22T08:08:06.742Z,31.42
2018-01-22T08:10:41.862Z,41.78
2018-01-22T08:13:16.243Z,34.85
2018-01-22T08:15:50.742Z,37.45
2018-01-22T08:18:25.218Z,37.42
2018-01-22T08:20:59.730Z,33.63
2018-01-22T08:23:34.224Z,29.65
2018-01-22T08:26:08.944Z,42.70
2018-01-22T08:28:43.485Z,27.80
2018-01-22T08:31:18.075Z,41.83
2018-01-22T08:33:52.406Z,33.08
2018-01-22T08:36:26.866Z,37.35
2018-01-22T08:39:01.395Z,22.70
2018-01-22T08:41:36.605Z,33.55
2018-01-22T08:44:11.026Z,36.38
2018-01-22T08:46:45.513Z,42.47
2018-01-22T08:49:20.036Z,32.80
2018-01-22T08:51:54.479Z,31.37
2018-01-22T08:54:29.085Z,34.15
2018-01-22T08:57:03.424Z,30.60
2018-01-22T08:59:37.900Z,37.30
2018-01-22T09:02:12.256Z,35.70
2018-01-22T09:04:46.825Z,33.83
2018-01-22T09:07:21.344Z,38.20
2018-01-22T09:09:55.971Z,36.67
2018-01-22T09:12:30.503Z,33.22
2018-01-22T09:15:05.018Z,27.95
2018-01-22T09:17:39.472Z,41.42
2018-01-22T09:20:13.874Z,32.95
2018-01-22T09:22:48.247Z,31.73
2018-01-22T09:25:22.806Z,42.25
2018-01-22T09:27:57.324Z,37.80
2018-01-22T09:30:31.809Z,35.65
2018-01-22T09:33:07.071Z,37.38
2018-01-22T09:35:41.424Z,37.10
2018-01-22T09:38:16.018Z,36.58
2018-01-22T09:40:50.688Z,37.60
2018-01-22T09:43:25.121Z,38.20
2018-01-22T09:45:59.605Z,44.22
2018-01-22T09:48:34.158Z,37.97
2018-01-22T09:51:08.713Z,38.33
2018-01-22T09:53:43.249Z,37.95
2018-01-22T09:56:17.637Z,34.33
2018-01-22T09:58:52.138Z,32.85
2018-01-22T10:01:26.700Z,28.77
2018-01-22T10:04:01.241Z,40.80
2018-01-22T10:06:36.469Z,38.80
2018-01-22T10:09:11.025Z,31.05
2018-01-22T10:11:45.482Z,37.30
2018-01-22T10:14:20.161Z,30.70
2018-01-22T10:16:54.745Z,32.10
2018-01-22T10:19:29.299Z,38.10
2018-01-22T10:22:03.772Z,33.92
2018-01-22T10:24:38.338Z,32.47
2018-01-22T10:27:12.838Z,31.23
2018-01-22T10:29:47.988Z,32.22
2018-01-22T10:32:23.060Z,45.05
2018-01-22T10:34:57.798Z,36.17
2018-01-22T10:37:32.341Z,34.45
2018-01-22T10:40:06.929Z,37.95
2018-01-22T10:42:48.356Z,29.20
2018-01-22T10:45:23.594Z,26.17
2018-01-22T10:47:58.066Z,29.58
2018-01-22T10:50:32.900Z,30.65
2018-01-22T10:53:07.345Z,23.75
2018-01-22T10:55:41.877Z,39.35
2018-01-22T10:58:17.128Z,28.75
2018-01-22T11:00:51.519Z,24.37
2018-01-22T11:03:25.952Z,21.20
2018-01-22T11:06:00.413Z,30.88
2018-01-22T11:08:34.790Z,27.52
2018-01-22T11:11:09.279Z,32.22
2018-01-22T11:13:43.747Z,25.58
2018-01-22T11:16:18.253Z,28.85
2018-01-22T11:18:52.694Z,24.23
2018-01-22T11:21:27.198Z,30.92
2018-01-22T11:24:02.566Z,41.53
2018-01-22T11:26:37.748Z,26.83
2018-01-22T11:29:12.221Z,31.75
2018-01-22T11:31:46.561Z,34.55
2018-01-22T11:34:21.081Z,40.53
2018-01-22T11:36:55.480Z,44.42
2018-01-22T11:39:30.604Z,30.17
2018-01-22T11:42:04.922Z,30.95
2018-01-22T11:44:39.440Z,35.47
2018-01-22T11:47:13.924Z,31.62
2018-01-22T11:49:48.449Z,28.27
2018-01-22T11:52:22.802Z,37.75
2018-01-22T11:54:57.242Z,27.25
2018-01-22T11:57:32.510Z,29.85
2018-01-22T12:00:14.780Z,32.63
2018-01-22T12:02:49.337Z,31.73
2018-01-22T12:05:23.807Z,28.42
2018-01-22T12:07:58.137Z,34.05
2018-01-22T12:10:32.513Z,42.38
2018-01-22T12:13:07.037Z,76.20
2018-01-22T12:15:41.661Z,41.10
2018-01-22T12:18:16.000Z,35.63
2018-01-22T12:20:50.459Z,31.05
2018-01-22T12:23:24.928Z,30.27
2018-01-22T12:25:59.524Z,28.80
2018-01-22T12:28:33.857Z,28.12
2018-01-22T12:31:08.230Z,31.70
2018-01-22T12:33:43.450Z,31.83
2018-01-22T12:36:17.969Z,38.83
2018-01-22T12:38:52.363Z,30.95
2018-01-22T12:41:26.840Z,35.45
2018-01-22T12:44:01.317Z,30.75
2018-01-22T12:46:35.815Z,31.17
2018-01-22T12:49:10.280Z,38.20
2018-01-22T12:51:44.725Z,40.55
2018-01-22T12:54:19.215Z,40.65
2018-01-22T12:56:54.443Z,36.08
2018-01-22T12:59:28.943Z,42.53
2018-01-22T13:02:03.282Z,29.08
2018-01-22T13:04:37.927Z,36.40
2018-01-22T13:07:12.333Z,42.40
2018-01-22T13:09:46.703Z,35.63
2018-01-22T13:12:21.139Z,32.53
2018-01-22T13:14:55.624Z,34.38
2018-01-22T13:17:30.111Z,37.88
2018-01-22T13:20:04.545Z,37.03
2018-01-22T13:22:39.063Z,35.13
2018-01-22T13:25:13.501Z,29.27
2018-01-22T13:27:48.655Z,39.70
2018-01-22T13:30:22.993Z,38.92
2018-01-22T13:32:57.487Z,33.90
2018-01-22T13:35:31.941Z,38.88
2018-01-22T13:38:06.325Z,38.10
2018-01-22T13:40:46.382Z,38.83
2018-01-22T13:43:20.847Z,37.03
2018-01-22T13:45:55.331Z,31.90
2018-01-22T13:48:29.772Z,30.83
2018-01-22T13:51:04.248Z,32.05
2018-01-22T13:53:38.592Z,38.95
2018-01-22T13:56:13.095Z,39.15
2018-01-22T13:58:47.541Z,28.92
2018-01-22T14:01:21.904Z,31.00
2018-01-22T14:03:56.345Z,35.03
2018-01-22T14:06:30.992Z,34.60
2018-01-22T14:09:05.544Z,34.72
2018-01-22T14:11:39.929Z,30.80
2018-01-22T14:14:14.362Z,34.63
2018-01-22T14:16:49.009Z,35.08
2018-01-22T14:19:23.326Z,37.35
2018-01-22T14:21:57.788Z,39.63
2018-01-22T14:24:32.286Z,45.00
2018-01-22T14:27:06.743Z,41.17
2018-01-22T14:29:41.233Z,32.70
2018-01-22T14:32:15.568Z,40.88
2018-01-22T14:34:50.047Z,34.53
2018-01-22T14:37:24.388Z,33.88
2018-01-22T14:39:59.600Z,34.30
2018-01-22T14:42:33.951Z,35.63
2018-01-22T14:45:09.163Z,37.55
2018-01-22T14:47:43.505Z,32.75
2018-01-22T14:50:17.821Z,42.62
2018-01-22T14:52:53.052Z,32.55
2018-01-22T14:55:28.268Z,35.63
2018-01-22T14:58:02.765Z,33.78
2018-01-22T15:00:37.223Z,39.95
2018-01-22T15:03:11.746Z,43.17
2018-01-22T15:05:46.974Z,31.90
2018-01-22T15:08:21.426Z,36.85
2018-01-22T15:10:56.666Z,38.97
2018-01-22T15:13:31.077Z,39.00
2018-01-22T15:16:05.591Z,37.53
2018-01-22T15:18:40.806Z,54.38
2018-01-22T15:21:15.288Z,40.50
2018-01-22T15:23:49.621Z,36.92
2018-01-22T15:26:24.106Z,41.30
2018-01-22T15:28:58.563Z,39.97
2018-01-22T15:31:33.053Z,38.55
2018-01-22T15:34:07.504Z,35.65
2018-01-22T15:36:41.994Z,44.13
2018-01-22T15:39:17.083Z,35.95
2018-01-22T15:41:51.566Z,33.33
2018-01-22T15:44:26.033Z,32.95
2018-01-22T15:47:00.576Z,34.08
2018-01-22T15:49:35.702Z,33.17
2018-01-22T15:52:10.034Z,37.58
2018-01-22T15:54:45.357Z,38.42
2018-01-22T15:57:20.586Z,36.85
2018-01-22T15:59:55.054Z,43.97
2018-01-22T16:02:29.498Z,37.72
2018-01-22T16:05:04.875Z,30.25
2018-01-22T16:07:40.104Z,40.08
2018-01-22T16:10:14.432Z,56.75
2018-01-22T16:12:48.792Z,56.40
2018-01-22T16:15:23.145Z,50.17
2018-01-22T16:17:57.600Z,44.55
2018-01-22T16:20:31.932Z,41.97
2018-01-22T16:23:07.172Z,42.17
2018-01-22T16:25:41.590Z,43.13
2018-01-22T16:28:16.053Z,42.75
2018-01-22T16:30:50.412Z,38.42
2018-01-22T16:33:24.870Z,34.40
2018-01-22T16:35:59.338Z,40.65
2018-01-22T16:38:33.771Z,40.78
2018-01-22T16:41:09.009Z,39.83
2018-01-22T16:43:43.353Z,38.20
2018-01-22T16:46:18.472Z,38.28
2018-01-22T16:48:52.816Z,39.95
2018-01-22T16:51:28.017Z,42.50
2018-01-22T16:54:02.437Z,40.72
2018-01-22T16:56:36.819Z,37.30
2018-01-22T16:59:11.313Z,36.35
2018-01-22T17:01:46.802Z,44.83
2018-01-22T17:04:23.111Z,39.92
2018-01-22T17:06:57.678Z,45.67
2018-01-22T17:09:32.178Z,37.17
2018-01-22T17:12:06.624Z,35.47
2018-01-22T17:14:41.114Z,36.42
2018-01-22T17:17:15.601Z,39.90
2018-01-22T17:19:49.928Z,37.10
2018-01-22T17:22:24.408Z,33.85
2018-01-22T17:24:58.757Z,41.90
2018-01-22T17:27:34.011Z,32.30
2018-01-22T17:30:09.162Z,34.22
2018-01-22T17:32:43.788Z,34.58
2018-01-22T17:35:18.245Z,40.70
2018-01-22T17:37:52.739Z,35.72
2018-01-22T17:40:27.244Z,39.95
2018-01-22T17:43:01.756Z,53.38
2018-01-22T17:45:36.241Z,49.25
2018-01-22T17:48:10.588Z,38.63
2018-01-22T17:50:45.712Z,32.05
2018-01-22T17:53:20.996Z,39.08
2018-01-22T17:55:55.473Z,37.20
2018-01-22T17:58:30.709Z,32.75
2018-01-22T18:01:05.050Z,32.50
2018-01-22T18:03:39.532Z,35.17
2018-01-22T18:06:13.969Z,36.15
2018-01-22T18:08:48.431Z,32.13
2018-01-22T18:11:22.920Z,41.47
2018-01-22T18:13:57.402Z,37.40
2018-01-22T18:16:31.769Z,35.05
2018-01-22T18:19:06.281Z,37.30
2018-01-22T18:21:40.774Z,37.70
2018-01-22T18:24:15.272Z,30.17
2018-01-22T18:26:49.760Z,29.52
2018-01-22T18:29:24.330Z,40.97
2018-01-22T18:31:58.856Z,32.33
2018-01-22T18:34:33.284Z,37.17
2018-01-22T18:37:07.793Z,40.30
2018-01-22T18:39:42.277Z,36.20
2018-01-22T18:42:16.652Z,37.97
2018-01-22T18:44:51.113Z,36.03
2018-01-22T18:47:25.582Z,39.90
2018-01-22T18:50:00.053Z,31.75
2018-01-22T18:52:34.397Z,35.13
2018-01-22T18:55:08.851Z,39.60
2018-01-22T18:57:43.372Z,41.13
2018-01-22T19:00:17.723Z,39.33
2018-01-22T19:02:52.175Z,39.13
2018-01-22T19:05:26.833Z,40.55
2018-01-22T19:08:01.360Z,36.00
2018-01-22T19:10:36.593Z,41.10
2018-01-22T19:13:11.044Z,45.25
2018-01-22T19:15:46.194Z,47.08
2018-01-22T19:18:20.660Z,35.67
2018-01-22T19:20:55.058Z,48.80
2018-01-22T19:23:29.397Z,42.33
2018-01-22T19:26:03.858Z,46.63
2018-01-22T19:28:38.363Z,45.95
2018-01-22T19:31:13.468Z,40.88
2018-01-22T19:33:47.827Z,45.63
2018-01-22T19:36:22.223Z,44.38
2018-01-22T19:38:56.719Z,48.30
2018-01-22T19:41:31.202Z,47.17
2018-01-22T19:44:06.318Z,42.13
2018-01-22T19:46:40.780Z,40.60
2018-01-22T19:49:16.049Z,45.08
2018-01-22T19:51:50.443Z,42.03
2018-01-22T19:54:24.890Z,49.85
2018-01-22T19:56:59.379Z,46.80
2018-01-22T19:59:33.834Z,48.85
2018-01-22T20:02:08.316Z,48.25
2018-01-22T20:04:42.793Z,45.10
2018-01-22T20:07:17.276Z,42.72
2018-01-22T20:09:51.641Z,42.65
2018-01-22T20:12:26.086Z,49.08
2018-01-22T20:15:00.458Z,48.45
2018-01-22T20:17:35.569Z,53.55
2018-01-22T20:20:10.058Z,48.60
2018-01-22T20:22:44.411Z,38.10
2018-01-22T20:25:18.766Z,36.85
2018-01-22T20:27:53.224Z,44.35
2018-01-22T20:30:27.674Z,56.17
2018-01-22T20:33:02.004Z,55.28
2018-01-22T20:35:36.560Z,46.97
2018-01-22T20:38:11.659Z,49.33
2018-01-22T20:40:46.062Z,59.67
2018-01-22T20:43:20.398Z,44.33
2018-01-22T20:45:54.911Z,53.97
2018-01-22T20:48:29.268Z,52.35
2018-01-22T20:51:03.735Z,44.75
2018-01-22T20:53:38.092Z,51.17
2018-01-22T20:56:12.448Z,67.85
2018-01-22T20:58:47.840Z,57.55
2018-01-22T21:01:23.076Z,58.05
2018-01-22T21:03:57.583Z,52.08
2018-01-22T21:06:32.757Z,66.57
2018-01-22T21:09:07.232Z,58.95
2018-01-22T21:11:41.553Z,53.65
2018-01-22T21:14:15.991Z,67.05
2018-01-22T21:16:50.450Z,53.38
2018-01-22T21:19:24.908Z,61.42
2018-01-22T21:21:59.282Z,59.33
2018-01-22T21:24:33.767Z,66.95
2018-01-22T21:27:09.166Z,46.75
2018-01-22T21:29:43.654Z,53.97
2018-01-22T21:32:18.182Z,50.08
2018-01-22T21:34:52.700Z,65.20
2018-01-22T21:37:27.020Z,62.15
2018-01-22T21:40:01.602Z,57.33
2018-01-22T21:42:36.076Z,54.03
2018-01-22T21:45:10.537Z,69.50
2018-01-22T21:47:45.002Z,49.83
2018-01-22T21:50:19.536Z,64.75
2018-01-22T21:52:54.008Z,59.75
2018-01-22T21:55:29.277Z,56.50
2018-01-22T21:58:03.651Z,53.47
2018-01-22T22:00:38.846Z,64.25
2018-01-22T22:03:13.967Z,69.25
2018-01-22T22:05:48.473Z,60.83
2018-01-22T22:08:22.829Z,65.00
2018-01-22T22:10:57.270Z,68.70
2018-01-22T22:13:31.774Z,66.35
2018-01-22T22:16:06.302Z,59.03
2018-01-22T22:18:40.772Z,54.00
2018-01-22T22:21:16.023Z,62.55
2018-01-22T22:23:50.434Z,54.28
2018-01-22T22:26:25.705Z,56.95
2018-01-22T22:29:00.046Z,63.15
2018-01-22T22:31:34.543Z,55.08
2018-01-22T22:34:08.989Z,51.60
2018-01-22T22:36:43.341Z,55.10
2018-01-22T22:39:17.690Z,49.35
2018-01-22T22:41:52.317Z,44.88
2018-01-22T22:44:26.632Z,52.92
2018-01-22T22:47:01.155Z,50.15
2018-01-22T22:49:35.648Z,45.90
2018-01-22T22:52:10.124Z,44.35
2018-01-22T22:54:44.604Z,40.65
2018-01-22T22:57:19.229Z,36.78
2018-01-22T22:59:53.570Z,34.20
2018-01-22T23:02:28.037Z,38.88
2018-01-22T23:05:02.356Z,29.98
2018-01-22T23:07:36.838Z,32.00
2018-01-22T23:10:11.469Z,31.33
2018-01-22T23:12:45.793Z,30.77
2018-01-22T23:15:20.245Z,34.35
2018-01-22T23:17:54.712Z,22.90
2018-01-22T23:20:29.238Z,33.40
2018-01-22T23:23:03.583Z,27.70
2018-01-22T23:25:38.053Z,27.70
2018-01-22T23:28:12.561Z,33.72
2018-01-22T23:30:47.674Z,24.17
2018-01-22T23:33:22.186Z,24.92
2018-01-22T23:35:57.174Z,25.48
2018-01-22T23:38:31.600Z,23.12
2018-01-22T23:41:06.086Z,21.40
2018-01-22T23:43:41.345Z,21.75
2018-01-22T23:46:16.466Z,26.37
2018-01-22T23:48:50.916Z,23.90
2018-01-22T23:51:25.365Z,23.75
2018-01-22T23:53:59.728Z,29.75
2018-01-22T23:56:34.197Z,23.60
2018-01-22T23:59:08.659Z,28.17
